East Point, Louisiana
Current Conditions -  °F | °C
As of 10:01 AM on Thursday 18 Dec 2014 (Local Time) from KDTN Reporting Station
Overcast Overcast  
Wind Chill: 42°   Ceiling: 1600
Heat Index: 46°   Visibility: 10mi
Dew Point: 42°   Wind: 8mph
Humidity: 86%   Direction: 100°E
Pressure: 30.19"   Gusts: NA
Location:  32.17°N, 93.43°W
Report Text: KDTN 181601Z 10007KT 10SM SCT008 OVC016 08/06 A3019 RMK AO2 T00780056
Loading
Personal Weather Stations






























Interactive Weather Map New forecast layout! Learn more

10-Day Weather Forecast

Advertisements
Track Severe Weather on mobile